METAR AND TAF INFORMATION
METAR FOR VQPR
ADDS - METARS form results

(0240 UTC 24 January 2019)
Data provider http://aviationweather.gov/metar/data/
 
METAR text: VQPR 240230Z VRB02KT 8000 SCT015 BKN045 05/01 Q1026
Conditions at: VQPR (PARO , BT) observed 0230 UTC 24 January 2019
Temperature: 5.0°C (41°F)
Dewpoint: 1.0°C (34°F) [RH = 75%]
Pressure (altimeter): 30.30 inches Hg (1026.0 mb)
Winds: variable direction winds at 2 MPH (2 knots; 1.0 m/s)
Visibility: 5 miles ( 8 km)
Ceiling: 4500 feet AGL
Clouds: scattered clouds at 1500 feet AGL
broken clouds at 4500 feet AGL
Weather: no significant weather observed at this time

METAR text: VQPR 240200Z VRB02KT 9999 SCT015 BKN045 04/01 Q1026
Conditions at: VQPR (PARO , BT) observed 0200 UTC 24 January 2019
Temperature: 4.0°C (39°F)
Dewpoint: 1.0°C (34°F) [RH = 81%]
Pressure (altimeter): 30.30 inches Hg (1026.0 mb)
Winds: variable direction winds at 2 MPH (2 knots; 1.0 m/s)
Visibility: 6 or more miles (10+ km)
Ceiling: 4500 feet AGL
Clouds: scattered clouds at 1500 feet AGL
broken clouds at 4500 feet AGL
Weather: no significant weather observed at this time

 AIRPORT MAP

 RUNWAY INFORMATION
Runway 15 Runway length 6445 ft Runway width 95 ft
Runway elevation 7355 ft Runway displaced threshold 0 ft Runway heading 151
Runway 33 Runway length 6445 ft Runway width 95 ft
Runway elevation 7328 ft Runway displaced threshold 0 ft Runway heading 331

 AIRPORT FREQUENCIES

 AIRPORT NEAR NAVIGATION AIDS
Type NDB Name Paro Frequency 410 KHZ
Type VOR Name Paro Frequency 108400 KHZ



Powered by Virtual Airlines Manager [v2.6.2]